SWA1605 KBWI-MMUN
Flight info
| Callsign | SWA1605 |
|---|---|
| Flight time | N/A |
| Altitude | 34000 |
| Route | CONLE5 SCOOB DCT EARZZ Q131 WAALT Y289 BAHAA DCT HIBAC DCT PHK DCT SWAGS DCT LULLS DCT CANOA UB879 NOSAT NOSAT1B |
| Aircraft | B737/M-SADE2E3GIJ4J7RWZ/LB1D1 |
Departure
| Time | N/A |
|---|---|
| Airport | Baltimore/Washington International Thurgood Marshall Airport (KBWI) |
Arrival
| Time | 2026-05-04 11:02 |
|---|---|
| Airport | Cancún International Airport (MMUN) |
| Time | Latitude | Longitude | Altitude | Speed | Heading |
|---|---|---|---|---|---|
| 2026-05-04 09:27 | 27.30176 | -80.44337 | 34016 ft | 420 kts | 212° |
| 2026-05-04 09:27 | 27.27495 | -80.45623 | 34007 ft | 420 kts | 212° |
| 2026-05-04 09:28 | 27.22117 | -80.48200 | 34002 ft | 420 kts | 212° |
| 2026-05-04 09:28 | 27.16733 | -80.50778 | 34002 ft | 421 kts | 212° |
| 2026-05-04 09:29 | 27.11341 | -80.53356 | 34008 ft | 421 kts | 212° |
| 2026-05-04 09:29 | 27.05945 | -80.55934 | 34007 ft | 422 kts | 212° |
| 2026-05-04 09:30 | 27.00583 | -80.58493 | 34005 ft | 422 kts | 212° |
| 2026-05-04 09:30 | 26.95177 | -80.61070 | 34006 ft | 422 kts | 212° |
| 2026-05-04 09:31 | 26.89767 | -80.63647 | 34006 ft | 423 kts | 211° |
| 2026-05-04 09:31 | 26.84350 | -80.66224 | 34010 ft | 423 kts | 211° |
| 2026-05-04 09:32 | 26.78935 | -80.68806 | 34004 ft | 422 kts | 213° |
| 2026-05-04 09:34 | 26.59137 | -80.82083 | 34012 ft | 415 kts | 219° |
| 2026-05-04 09:34 | 26.54196 | -80.85424 | 34016 ft | 415 kts | 219° |
| 2026-05-04 09:35 | 26.49252 | -80.88763 | 34014 ft | 416 kts | 218° |
| 2026-05-04 09:35 | 26.44303 | -80.92103 | 34014 ft | 416 kts | 218° |
| 2026-05-04 09:37 | 26.24495 | -81.05437 | 34016 ft | 417 kts | 219° |
| 2026-05-04 09:38 | 26.19486 | -81.08800 | 34015 ft | 418 kts | 219° |
| 2026-05-04 09:38 | 26.14342 | -81.11810 | 34014 ft | 424 kts | 213° |
| 2026-05-04 09:39 | 26.08966 | -81.14548 | 34004 ft | 425 kts | 213° |
| 2026-05-04 09:39 | 26.03582 | -81.17282 | 34006 ft | 425 kts | 213° |
| 2026-05-04 09:40 | 25.98209 | -81.20028 | 34008 ft | 425 kts | 213° |
| 2026-05-04 09:40 | 25.92842 | -81.22781 | 34012 ft | 425 kts | 213° |
| 2026-05-04 09:42 | 25.71310 | -81.33812 | 34009 ft | 427 kts | 213° |
| 2026-05-04 09:43 | 25.65922 | -81.36566 | 34008 ft | 427 kts | 213° |
| 2026-05-04 09:43 | 25.60520 | -81.39323 | 34004 ft | 428 kts | 213° |
| 2026-05-04 09:44 | 25.56200 | -81.41526 | 34009 ft | 428 kts | 213° |
| 2026-05-04 09:46 | 25.34508 | -81.52562 | 33995 ft | 430 kts | 212° |
| 2026-05-04 09:46 | 25.29070 | -81.55322 | 33995 ft | 430 kts | 212° |
| 2026-05-04 09:47 | 25.23627 | -81.58081 | 33996 ft | 430 kts | 212° |
| 2026-05-04 09:49 | 25.01863 | -81.69088 | 33994 ft | 431 kts | 212° |
| 2026-05-04 09:51 | 24.82739 | -81.78725 | 33994 ft | 432 kts | 212° |
| 2026-05-04 09:51 | 24.77268 | -81.81476 | 33996 ft | 432 kts | 212° |
| 2026-05-04 09:52 | 24.71795 | -81.84225 | 33995 ft | 433 kts | 212° |
| 2026-05-04 09:52 | 24.66317 | -81.86975 | 33999 ft | 433 kts | 212° |
| 2026-05-04 09:53 | 24.60835 | -81.89724 | 33998 ft | 433 kts | 212° |
| 2026-05-04 09:53 | 24.56275 | -81.92009 | 34000 ft | 433 kts | 212° |
| 2026-05-04 09:54 | 24.50903 | -81.94938 | 33983 ft | 424 kts | 222° |
| 2026-05-04 09:54 | 24.46808 | -81.99399 | 34000 ft | 410 kts | 239° |
| 2026-05-04 09:55 | 24.44161 | -82.04865 | 34001 ft | 406 kts | 248° |
| 2026-05-04 09:55 | 24.41760 | -82.10477 | 34001 ft | 407 kts | 248° |
| 2026-05-04 09:56 | 24.39332 | -82.16101 | 33993 ft | 409 kts | 248° |
| 2026-05-04 09:56 | 24.36875 | -82.21729 | 33995 ft | 410 kts | 248° |
| 2026-05-04 09:57 | 24.34398 | -82.27372 | 33999 ft | 411 kts | 248° |
| 2026-05-04 09:57 | 24.31916 | -82.33016 | 33999 ft | 411 kts | 248° |
| 2026-05-04 09:58 | 24.29428 | -82.38665 | 33997 ft | 412 kts | 248° |
| 2026-05-04 09:58 | 24.26955 | -82.44276 | 34000 ft | 412 kts | 248° |
| 2026-05-04 10:00 | 24.16980 | -82.66836 | 33996 ft | 411 kts | 248° |
| 2026-05-04 10:04 | 23.99236 | -83.06220 | 33993 ft | 418 kts | 239° |
| 2026-05-04 10:04 | 23.95763 | -83.11323 | 34005 ft | 420 kts | 237° |
| 2026-05-04 10:05 | 23.92277 | -83.16389 | 33998 ft | 420 kts | 238° |
| 2026-05-04 10:05 | 23.88784 | -83.21498 | 34000 ft | 420 kts | 238° |
| 2026-05-04 10:06 | 23.85301 | -83.26611 | 33998 ft | 419 kts | 238° |
| 2026-05-04 10:06 | 23.81817 | -83.31725 | 33996 ft | 420 kts | 238° |
| 2026-05-04 10:08 | 23.69603 | -83.49608 | 34000 ft | 420 kts | 237° |
| 2026-05-04 10:08 | 23.66108 | -83.54716 | 33998 ft | 421 kts | 237° |
| 2026-05-04 10:09 | 23.62602 | -83.59831 | 34002 ft | 421 kts | 237° |
| 2026-05-04 10:09 | 23.59088 | -83.64946 | 33994 ft | 422 kts | 237° |
| 2026-05-04 10:10 | 23.55571 | -83.70060 | 34000 ft | 422 kts | 237° |
| 2026-05-04 10:10 | 23.52049 | -83.75177 | 34002 ft | 422 kts | 237° |
| 2026-05-04 10:11 | 23.48522 | -83.80300 | 34003 ft | 423 kts | 237° |
| 2026-05-04 10:11 | 23.44990 | -83.85423 | 34000 ft | 423 kts | 237° |
| 2026-05-04 10:12 | 23.41456 | -83.90545 | 34001 ft | 423 kts | 237° |
| 2026-05-04 10:12 | 23.37918 | -83.95666 | 33999 ft | 423 kts | 237° |
| 2026-05-04 10:13 | 23.34374 | -84.00792 | 34005 ft | 424 kts | 237° |
| 2026-05-04 10:13 | 23.30828 | -84.05915 | 33999 ft | 424 kts | 237° |
| 2026-05-04 10:14 | 23.27279 | -84.11037 | 34003 ft | 424 kts | 237° |
| 2026-05-04 10:16 | 23.13064 | -84.31504 | 34005 ft | 425 kts | 237° |
| 2026-05-04 10:16 | 23.09495 | -84.36631 | 33998 ft | 426 kts | 237° |
| 2026-05-04 10:17 | 23.05920 | -84.41761 | 33999 ft | 426 kts | 237° |
| 2026-05-04 10:19 | 22.91568 | -84.62298 | 34004 ft | 428 kts | 237° |
| 2026-05-04 10:19 | 22.87968 | -84.67435 | 34004 ft | 428 kts | 236° |
| 2026-05-04 10:20 | 22.84367 | -84.72569 | 34002 ft | 428 kts | 237° |
| 2026-05-04 10:20 | 22.80759 | -84.77709 | 34000 ft | 428 kts | 236° |
| 2026-05-04 10:21 | 22.77150 | -84.82846 | 34002 ft | 428 kts | 236° |
| 2026-05-04 10:21 | 22.73534 | -84.87987 | 33996 ft | 429 kts | 236° |
| 2026-05-04 10:22 | 22.68107 | -84.95695 | 34002 ft | 429 kts | 236° |
| 2026-05-04 10:23 | 22.64509 | -85.00800 | 34001 ft | 429 kts | 236° |
| 2026-05-04 10:25 | 22.50089 | -85.21417 | 33995 ft | 430 kts | 236° |
| 2026-05-04 10:25 | 22.46489 | -85.26576 | 34004 ft | 430 kts | 236° |
| 2026-05-04 10:26 | 22.42883 | -85.31737 | 34002 ft | 430 kts | 236° |
| 2026-05-04 10:26 | 22.39273 | -85.36898 | 34006 ft | 431 kts | 236° |
| 2026-05-04 10:27 | 22.35658 | -85.42061 | 33998 ft | 431 kts | 236° |
| 2026-05-04 10:27 | 22.32038 | -85.47227 | 33998 ft | 431 kts | 236° |
| 2026-05-04 10:28 | 22.28415 | -85.52393 | 33996 ft | 431 kts | 236° |
| 2026-05-04 10:28 | 22.24792 | -85.57555 | 33999 ft | 431 kts | 236° |
| 2026-05-04 10:29 | 22.21240 | -85.62619 | 33981 ft | 408 kts | 236° |
| 2026-05-04 10:29 | 22.19563 | -85.65014 | 33975 ft | 391 kts | 236° |
| 2026-05-04 10:29 | 22.17955 | -85.67312 | 33982 ft | 376 kts | 237° |
| 2026-05-04 10:29 | 22.16421 | -85.69507 | 33974 ft | 362 kts | 237° |
| 2026-05-04 10:30 | 22.14930 | -85.71641 | 33904 ft | 351 kts | 237° |
| 2026-05-04 10:30 | 22.13479 | -85.73718 | 33697 ft | 344 kts | 237° |
| 2026-05-04 10:30 | 22.12048 | -85.75767 | 33284 ft | 340 kts | 237° |
| 2026-05-04 10:30 | 22.10628 | -85.77799 | 32686 ft | 339 kts | 237° |
| 2026-05-04 10:31 | 22.09210 | -85.79829 | 32042 ft | 339 kts | 237° |
| 2026-05-04 10:31 | 22.07770 | -85.81891 | 30937 ft | 352 kts | 237° |
| 2026-05-04 10:32 | 21.98032 | -85.95775 | 23124 ft | 403 kts | 236° |
| 2026-05-04 10:33 | 21.96331 | -85.98146 | 22275 ft | 394 kts | 232° |
| 2026-05-04 10:33 | 21.94419 | -86.00177 | 21873 ft | 378 kts | 225° |
| 2026-05-04 10:33 | 21.92476 | -86.01983 | 21755 ft | 364 kts | 224° |
| 2026-05-04 10:33 | 21.90514 | -86.03768 | 21640 ft | 376 kts | 224° |
| 2026-05-04 10:34 | 21.88503 | -86.05606 | 21502 ft | 382 kts | 224° |
| 2026-05-04 10:34 | 21.86485 | -86.07467 | 21355 ft | 381 kts | 224° |
| 2026-05-04 10:34 | 21.84490 | -86.09321 | 21225 ft | 378 kts | 224° |
| 2026-05-04 10:34 | 21.82508 | -86.11174 | 21093 ft | 377 kts | 224° |
| 2026-05-04 10:35 | 21.80535 | -86.13025 | 20965 ft | 375 kts | 224° |
| 2026-05-04 10:35 | 21.78569 | -86.14871 | 20837 ft | 375 kts | 224° |
| 2026-05-04 10:35 | 21.76611 | -86.16712 | 20717 ft | 374 kts | 224° |
| 2026-05-04 10:35 | 21.74870 | -86.18347 | 20600 ft | 375 kts | 225° |
| 2026-05-04 10:36 | 21.72891 | -86.20206 | 20484 ft | 379 kts | 225° |
| 2026-05-04 10:36 | 21.70909 | -86.22068 | 20349 ft | 377 kts | 225° |
| 2026-05-04 10:36 | 21.68950 | -86.23904 | 20211 ft | 368 kts | 225° |
| 2026-05-04 10:36 | 21.67085 | -86.25648 | 20080 ft | 353 kts | 225° |
| 2026-05-04 10:37 | 21.65265 | -86.27351 | 19914 ft | 341 kts | 225° |
| 2026-05-04 10:37 | 21.63489 | -86.29017 | 19549 ft | 337 kts | 225° |
| 2026-05-04 10:37 | 21.61739 | -86.30661 | 19199 ft | 332 kts | 225° |
| 2026-05-04 10:37 | 21.60012 | -86.32283 | 18850 ft | 328 kts | 225° |
| 2026-05-04 10:39 | 21.49783 | -86.41310 | 16675 ft | 312 kts | 217° |
| 2026-05-04 10:39 | 21.48552 | -86.42164 | 16444 ft | 313 kts | 216° |
| 2026-05-04 10:40 | 21.47604 | -86.42822 | 16267 ft | 314 kts | 216° |
| 2026-05-04 10:40 | 21.45771 | -86.44100 | 15923 ft | 316 kts | 217° |
| 2026-05-04 10:40 | 21.43934 | -86.45394 | 15572 ft | 314 kts | 217° |
| 2026-05-04 10:41 | 21.42113 | -86.46685 | 15222 ft | 313 kts | 217° |
| 2026-05-04 10:41 | 21.40304 | -86.47976 | 14883 ft | 312 kts | 217° |
| 2026-05-04 10:41 | 21.38496 | -86.49267 | 14538 ft | 311 kts | 217° |
| 2026-05-04 10:41 | 21.36701 | -86.50549 | 14184 ft | 310 kts | 217° |
| 2026-05-04 10:42 | 21.34906 | -86.51832 | 13829 ft | 309 kts | 217° |
| 2026-05-04 10:42 | 21.33121 | -86.53108 | 13436 ft | 308 kts | 217° |
| 2026-05-04 10:42 | 21.31345 | -86.54377 | 13060 ft | 305 kts | 217° |
| 2026-05-04 10:42 | 21.29584 | -86.55636 | 12691 ft | 303 kts | 216° |
| 2026-05-04 10:43 | 21.27837 | -86.56884 | 12333 ft | 301 kts | 216° |
| 2026-05-04 10:44 | 21.15912 | -86.65399 | 9907 ft | 289 kts | 215° |
| 2026-05-04 10:45 | 21.14788 | -86.66201 | 9655 ft | 287 kts | 215° |
| 2026-05-04 10:45 | 21.13133 | -86.67381 | 9297 ft | 284 kts | 214° |
| 2026-05-04 10:45 | 21.11497 | -86.68547 | 8957 ft | 281 kts | 214° |
| 2026-05-04 10:45 | 21.09880 | -86.69699 | 8631 ft | 278 kts | 214° |
| 2026-05-04 10:46 | 21.08465 | -86.71069 | 8277 ft | 274 kts | 237° |
| 2026-05-04 10:46 | 21.07782 | -86.72908 | 7985 ft | 269 kts | 263° |
| 2026-05-04 10:46 | 21.07900 | -86.74881 | 7685 ft | 266 kts | 286° |
| 2026-05-04 10:46 | 21.08688 | -86.76651 | 7379 ft | 263 kts | 303° |
| 2026-05-04 10:47 | 21.09709 | -86.78267 | 7072 ft | 262 kts | 304° |
| 2026-05-04 10:47 | 21.10732 | -86.79864 | 6872 ft | 255 kts | 304° |
| 2026-05-04 10:47 | 21.11731 | -86.81433 | 6473 ft | 252 kts | 304° |
| 2026-05-04 10:47 | 21.12702 | -86.82966 | 6139 ft | 246 kts | 304° |
| 2026-05-04 10:49 | 21.19183 | -86.93325 | 4287 ft | 236 kts | 303° |
| 2026-05-04 10:49 | 21.20093 | -86.94784 | 4054 ft | 235 kts | 303° |
| 2026-05-04 10:50 | 21.21002 | -86.96242 | 3823 ft | 235 kts | 303° |
| 2026-05-04 10:51 | 21.26845 | -87.05613 | 2988 ft | 179 kts | 303° |
| 2026-05-04 10:52 | 21.27516 | -87.06688 | 3000 ft | 170 kts | 303° |
| 2026-05-04 10:52 | 21.28171 | -87.07738 | 2993 ft | 169 kts | 303° |
| 2026-05-04 10:52 | 21.28810 | -87.08802 | 3003 ft | 171 kts | 294° |
| 2026-05-04 10:54 | 21.23257 | -87.14396 | 2235 ft | 168 kts | 213° |
| 2026-05-04 10:54 | 21.22284 | -87.15083 | 2102 ft | 167 kts | 208° |
| 2026-05-04 10:56 | 21.17145 | -87.09342 | 1995 ft | 162 kts | 123° |
| 2026-05-04 10:56 | 21.16518 | -87.08338 | 1993 ft | 162 kts | 123° |
| 2026-05-04 10:56 | 21.15892 | -87.07335 | 2003 ft | 162 kts | 123° |
| 2026-05-04 10:57 | 21.15262 | -87.06325 | 2009 ft | 163 kts | 123° |
| 2026-05-04 10:57 | 21.14629 | -87.05310 | 2012 ft | 165 kts | 123° |
| 2026-05-04 10:57 | 21.13991 | -87.04286 | 2013 ft | 166 kts | 123° |
| 2026-05-04 10:57 | 21.13346 | -87.03252 | 2006 ft | 167 kts | 123° |
| 2026-05-04 10:58 | 21.12699 | -87.02213 | 2011 ft | 168 kts | 123° |
| 2026-05-04 10:58 | 21.12051 | -87.01173 | 2009 ft | 168 kts | 123° |
| 2026-05-04 10:58 | 21.11398 | -87.00125 | 2022 ft | 171 kts | 123° |
| 2026-05-04 10:58 | 21.10735 | -86.99061 | 1995 ft | 169 kts | 123° |
| 2026-05-04 10:59 | 21.10090 | -86.98026 | 1924 ft | 168 kts | 123° |
| 2026-05-04 10:59 | 21.09437 | -86.96978 | 1709 ft | 170 kts | 123° |
| 2026-05-04 10:59 | 21.08792 | -86.95943 | 1504 ft | 164 kts | 123° |
| 2026-05-04 10:59 | 21.08170 | -86.94943 | 1270 ft | 158 kts | 123° |
| 2026-05-04 11:00 | 21.07588 | -86.94010 | 1080 ft | 145 kts | 122° |
| 2026-05-04 11:01 | 21.04001 | -86.88251 | 32 ft | 102 kts | 123° |
| 2026-05-04 11:02 | 21.03734 | -86.87824 | 34 ft | 45 kts | 124° |
| 2026-05-04 11:02 | 21.03602 | -86.87524 | 35 ft | 36 kts | 96° |
| 2026-05-04 11:05 | 21.04272 | -86.88367 | 29 ft | 12 kts | 303° |
| 2026-05-04 11:06 | 21.04316 | -86.88440 | 30 ft | 11 kts | 303° |
| 2026-05-04 11:06 | 21.04360 | -86.88510 | 30 ft | 11 kts | 304° |
| 2026-05-04 11:06 | 21.04403 | -86.88578 | 30 ft | 11 kts | 303° |
| 2026-05-04 11:06 | 21.04461 | -86.88601 | 29 ft | 11 kts | 37° |
| 2026-05-04 11:08 | 21.04888 | -86.88223 | 28 ft | 3 kts | 124° |
| 2026-05-04 11:10 | 21.04886 | -86.88221 | 28 ft | 0 kts | 124° |